Edinburgh, IN (46124)

6:25 PM EST on February 28, 2015 (GMT -0500)
Edinburgh East | Change Station
CLOSE
Current Station
Personal Weather Station
Location: Edinburgh, IN
Elevation: 817 ft
Nearby Weather Stations
Active Advisory: Winter Weather Advisory

Elev 817 ft 39.36 °N, 85.91 °W | Updated 21 seconds ago

Clear
Clear
25.3 °F
Feels Like 19 °F
N
4.9
Wind Variable Wind from East
Gusts 7.0 mph

Today
High -- | Low -- °F
--% Chance of Precip.
Yesterday
High -- | Low -- °F
Precip. -- in
7:18 AM 6:34 PM
Waxing Gibbous, 81% visible
Pressure 30.54 in
Visibility 10.0 miles
Clouds Scattered Clouds 6500 ft
Overcast 7500 ft
Windchill 19 °F
Dew Point 13 °F
Humidity 58%
Rainfall 0.00 in
Snow Depth Not available.
UV 0 out of 12
Pollen .60 out of 12
Air Quality Not available.
Flu Activity Not available.
METAR K1II 282315Z AUTO 08005KT 10SM SCT065 OVC075 M02/M11 A3054 RMK AO2

More Conditions Fewer Conditions

Pressure 30.54 in
Visibility 10.0 miles
Clouds Scattered Clouds 6500 ft
Overcast 7500 ft
Windchill 19 °F
Dew Point 13 °F
Humidity 58%
Rainfall 0.00 in
Snow Depth Not available.
UV 0 out of 12
Pollen .60 out of 12
Air Quality Not available.
Flu Activity Not available.
METAR K1II 282315Z AUTO 08005KT 10SM SCT065 OVC075 M02/M11 A3054 RMK AO2

More Conditions Fewer Conditions

10-Day Weather Forecast

Almanac

Astronomy

Feb. 28, 2015 Rise Set
Actual Time
Civil Twilight
Nautical Twilight
Astronomical Twilight
Moon
Length of Visible Light
Length of Day
Tomorrow will be .
, % of the Moon is Illuminated

Today's Extremes

State Highs State Lows

Community

WunderPhotos

Upload Photos

1,801,171 photos uploaded!

WunderBlogs® & News

Nearby

Air Quality

  Air Quality AQ Index Pollutant
Not available.

Snow Depth

Station Depth Elevation

Earthquake Activity

City Distance Mag. Time & Date
Minimum magnitude displayed is 2.5.

Coastal Water Temperatures

Place Temperature

Nearby Weather Stations

Winter Weather Advisory
Statement as of 10:50 AM EST on February 28, 2015

... Winter Weather Advisory remains in effect from 7 PM this
evening to 7 PM EST Sunday...

A Winter Weather Advisory remains in effect from 7 PM this
evening to 7 PM EST Sunday for snow accumulations of 2 to 4
inches. Minor ice accumulations are also possible.

* Timing... accumulating snow beginning around sunset. Snow may mix
with freezing rain very late tonight. A mix of snow... freezing
rain... and rain expected during the day on Sunday.

* Main impact... hazardous travel conditions due to accumulating
snow and ice.

* Other impacts... reduced visibility in areas of heavier snow.

Precautionary/preparedness actions...

A Winter Weather Advisory means that periods of snow... sleet... or
freezing rain will cause travel difficulties. Be prepared for
slippery roads and limited visibilities... and use caution while
driving.